<?xml version="1.0" encoding="utf-8"?>
<gpx xmlns:xsi="http://www.w3.org/2001/XMLSchema-instance" xmlns:xsd="http://www.w3.org/2001/XMLSchema" version="1.1" creator="Shapelink.com" xmlns="http://www.topografix.com/GPX/1/1" xmlns:gpxtpx="http://www.garmin.com/xmlschemas/TrackPointExtension/v1">
  <metadata>
    <name>Övrigt 1.54 km, 2020-07-13</name>
    <desc></desc>
    <author><name>Marian Moron</name></author> 
    <time>2020-07-13T19:10:55Z</time>
  </metadata>
  <trk>
    <name>Övrigt 1.54 km, 2020-07-13</name>
    <trkseg>
      <trkpt lat="51.228903193607" lon="4.458143765793">
        <ele>7.4</ele>
        <time>2020-07-13T19:10:55Z</time>
      </trkpt>
      <trkpt lat="51.228659196498" lon="4.458284581713">
        <ele>9.2</ele>
        <time>2020-07-13T19:11:11Z</time>
      </trkpt>
      <trkpt lat="51.228586273968" lon="4.458394049327">
        <ele>11.6</ele>
        <time>2020-07-13T19:11:21Z</time>
      </trkpt>
      <trkpt lat="51.228617035541" lon="4.458743658376">
        <ele>16.6</ele>
        <time>2020-07-13T19:11:45Z</time>
      </trkpt>
      <trkpt lat="51.228635475721" lon="4.458872571998">
        <ele>18</ele>
        <time>2020-07-13T19:11:54Z</time>
      </trkpt>
      <trkpt lat="51.2286472942" lon="4.458954714618">
        <ele>19</ele>
        <time>2020-07-13T19:12:01Z</time>
      </trkpt>
      <trkpt lat="51.228512680886" lon="4.45963515726">
        <ele>22</ele>
        <time>2020-07-13T19:12:41Z</time>
      </trkpt>
      <trkpt lat="51.228367254921" lon="4.460272852212">
        <ele>10.8</ele>
        <time>2020-07-13T19:13:24Z</time>
      </trkpt>
      <trkpt lat="51.228381252694" lon="4.460245443399">
        <ele>9.4</ele>
        <time>2020-07-13T19:13:36Z</time>
      </trkpt>
      <trkpt lat="51.22828938707" lon="4.460261704285">
        <ele>8.6</ele>
        <time>2020-07-13T19:13:41Z</time>
      </trkpt>
      <trkpt lat="51.228223002422" lon="4.460453565976">
        <ele>6.6</ele>
        <time>2020-07-13T19:13:52Z</time>
      </trkpt>
      <trkpt lat="51.228340181384" lon="4.460590945317">
        <ele>2.2</ele>
        <time>2020-07-13T19:14:15Z</time>
      </trkpt>
      <trkpt lat="51.228484098607" lon="4.46084466543">
        <ele>0.6</ele>
        <time>2020-07-13T19:14:44Z</time>
      </trkpt>
      <trkpt lat="51.228630446581" lon="4.461235597246">
        <ele>14.6</ele>
        <time>2020-07-13T19:15:09Z</time>
      </trkpt>
      <trkpt lat="51.228709068803" lon="4.461371635483">
        <ele>0</ele>
        <time>2020-07-13T19:15:59Z</time>
      </trkpt>
      <trkpt lat="51.228767574465" lon="4.461305083197">
        <ele>0</ele>
        <time>2020-07-13T19:16:09Z</time>
      </trkpt>
      <trkpt lat="51.229028251555" lon="4.461293180899">
        <ele>14</ele>
        <time>2020-07-13T19:17:16Z</time>
      </trkpt>
      <trkpt lat="51.229048451934" lon="4.461401642685">
        <ele>13.4</ele>
        <time>2020-07-13T19:17:21Z</time>
      </trkpt>
      <trkpt lat="51.228904534711" lon="4.461887960523">
        <ele>2</ele>
        <time>2020-07-13T19:18:06Z</time>
      </trkpt>
      <trkpt lat="51.228531372523" lon="4.461872034913">
        <ele>0.2</ele>
        <time>2020-07-13T19:18:40Z</time>
      </trkpt>
      <trkpt lat="51.228435567406" lon="4.461359565547">
        <ele>1</ele>
        <time>2020-07-13T19:19:15Z</time>
      </trkpt>
      <trkpt lat="51.228297349875" lon="4.460697311628">
        <ele>19</ele>
        <time>2020-07-13T19:20:12Z</time>
      </trkpt>
      <trkpt lat="51.228113618627" lon="4.46050100753">
        <ele>7.2</ele>
        <time>2020-07-13T19:20:53Z</time>
      </trkpt>
      <trkpt lat="51.227828550208" lon="4.460634698835">
        <ele>3.4</ele>
        <time>2020-07-13T19:22:12Z</time>
      </trkpt>
      <trkpt lat="51.227621684916" lon="4.460798313523">
        <ele>0</ele>
        <time>2020-07-13T19:23:20Z</time>
      </trkpt>
      <trkpt lat="51.227360924007" lon="4.461002496607">
        <ele>4.2</ele>
        <time>2020-07-13T19:24:01Z</time>
      </trkpt>
      <trkpt lat="51.227373496857" lon="4.460821279929">
        <ele>0</ele>
        <time>2020-07-13T19:24:24Z</time>
      </trkpt>
      <trkpt lat="51.227316332299" lon="4.460533110207">
        <ele>0</ele>
        <time>2020-07-13T19:26:55Z</time>
      </trkpt>
      <trkpt lat="51.227262352863" lon="4.460199594406">
        <ele>0</ele>
        <time>2020-07-13T19:27:19Z</time>
      </trkpt>
      <trkpt lat="51.22707820252" lon="4.459541782894">
        <ele>0</ele>
        <time>2020-07-13T19:28:06Z</time>
      </trkpt>
      <trkpt lat="51.227121620762" lon="4.459145319024">
        <ele>0</ele>
        <time>2020-07-13T19:28:47Z</time>
      </trkpt>
      <trkpt lat="51.227156908561" lon="4.459095698176">
        <ele>0</ele>
        <time>2020-07-13T19:28:51Z</time>
      </trkpt>
      <trkpt lat="51.227401492403" lon="4.458878020233">
        <ele>5</ele>
        <time>2020-07-13T19:29:21Z</time>
      </trkpt>
      <trkpt lat="51.227833914624" lon="4.458664365602">
        <ele>4</ele>
        <time>2020-07-13T19:30:04Z</time>
      </trkpt>
      <trkpt lat="51.228255943289" lon="4.458415339353">
        <ele>0</ele>
        <time>2020-07-13T19:30:49Z</time>
      </trkpt>
      <trkpt lat="51.22849558181" lon="4.458052905997">
        <ele>0</ele>
        <time>2020-07-13T19:31:34Z</time>
      </trkpt>
      <trkpt lat="51.228486194082" lon="4.457977720354">
        <ele>0</ele>
        <time>2020-07-13T19:31:40Z</time>
      </trkpt>
      <trkpt lat="51.22839667539" lon="4.457350921872">
        <ele>0</ele>
        <time>2020-07-13T19:32:37Z</time>
      </trkpt>
      <trkpt lat="51.228431124999" lon="4.457348072026">
        <ele>0</ele>
        <time>2020-07-13T19:32:41Z</time>
      </trkpt>
      <trkpt lat="51.228612257858" lon="4.457215386549">
        <ele>0.6</ele>
        <time>2020-07-13T19:33:12Z</time>
      </trkpt>
      <trkpt lat="51.228713595029" lon="4.457126789866">
        <ele>0</ele>
        <time>2020-07-13T19:33:26Z</time>
      </trkpt>
      <trkpt lat="51.228832618009" lon="4.457005084678">
        <ele>1.4</ele>
        <time>2020-07-13T19:33:55Z</time>
      </trkpt>
      <trkpt lat="51.229067311209" lon="4.45695378745">
        <ele>0.2</ele>
        <time>2020-07-13T19:34:17Z</time>
      </trkpt>
      <trkpt lat="51.229204522912" lon="4.456770978211">
        <ele>6.8</ele>
        <time>2020-07-13T19:35:19Z</time>
      </trkpt>
      <trkpt lat="51.22939076873" lon="4.456653044878">
        <ele>13.6</ele>
        <time>2020-07-13T19:36:02Z</time>
      </trkpt>
      <trkpt lat="51.229599729497" lon="4.456641896951">
        <ele>16.2</ele>
        <time>2020-07-13T19:36:37Z</time>
      </trkpt>
      <trkpt lat="51.229804918409" lon="4.457024698324">
        <ele>20.8</ele>
        <time>2020-07-13T19:37:37Z</time>
      </trkpt>
      <trkpt lat="51.229868285573" lon="4.457541945373">
        <ele>3.4</ele>
        <time>2020-07-13T19:38:10Z</time>
      </trkpt>
      <trkpt lat="51.2298878154" lon="4.457737327462">
        <ele>5.6</ele>
        <time>2020-07-13T19:38:29Z</time>
      </trkpt>
      <trkpt lat="51.229915224213" lon="4.457860289935">
        <ele>5.8</ele>
        <time>2020-07-13T19:38:40Z</time>
      </trkpt>
      <trkpt lat="51.229866944469" lon="4.457932625732">
        <ele>10.6</ele>
        <time>2020-07-13T19:38:47Z</time>
      </trkpt>
      <trkpt lat="51.229861077139" lon="4.457966740065">
        <ele>11.2</ele>
        <time>2020-07-13T19:38:49Z</time>
      </trkpt>
      <trkpt lat="51.229705341437" lon="4.457935140302">
        <ele>5</ele>
        <time>2020-07-13T19:40:06Z</time>
      </trkpt>
      <trkpt lat="51.229666281783" lon="4.457952826111">
        <ele>4.8</ele>
        <time>2020-07-13T19:40:10Z</time>
      </trkpt>
      <trkpt lat="51.229318768209" lon="4.458101101922">
        <ele>1.6</ele>
        <time>2020-07-13T19:41:23Z</time>
      </trkpt>
      <trkpt lat="51.22934466828" lon="4.458086601235">
        <ele>1.4</ele>
        <time>2020-07-13T19:41:26Z</time>
      </trkpt>
      <trkpt lat="51.229612805261" lon="4.457954334853">
        <ele>10</ele>
        <time>2020-07-13T19:42:23Z</time>
      </trkpt>
      <trkpt lat="51.229711711681" lon="4.457832294389">
        <ele>17.2</ele>
        <time>2020-07-13T19:43:00Z</time>
      </trkpt>
    </trkseg>
  </trk>
</gpx>